sensor_id;sensor_type;location;lat;lon;timestamp;P1;durP1;ratioP1;P2;durP2;ratioP2
10191;SDS011;17580;50.850;4.504;2023-08-30T00:01:11;2.57;;;2.37;;
10191;SDS011;17580;50.850;4.504;2023-08-30T00:03:38;2.70;;;2.43;;
10191;SDS011;17580;50.850;4.504;2023-08-30T00:06:06;3.03;;;2.87;;
10191;SDS011;17580;50.850;4.504;2023-08-30T00:08:34;2.37;;;2.20;;
10191;SDS011;17580;50.850;4.504;2023-08-30T00:11:01;2.53;;;2.43;;
10191;SDS011;17580;50.850;4.504;2023-08-30T00:13:29;3.07;;;2.57;;
10191;SDS011;17580;50.850;4.504;2023-08-30T00:15:57;2.93;;;2.73;;
10191;SDS011;17580;50.850;4.504;2023-08-30T00:18:25;2.90;;;2.70;;
10191;SDS011;17580;50.850;4.504;2023-08-30T00:20:52;3.10;;;2.80;;
10191;SDS011;17580;50.850;4.504;2023-08-30T00:23:21;3.00;;;2.80;;
10191;SDS011;17580;50.850;4.504;2023-08-30T00:25:49;2.50;;;2.40;;
10191;SDS011;17580;50.850;4.504;2023-08-30T00:28:16;2.73;;;2.53;;
10191;SDS011;17580;50.850;4.504;2023-08-30T00:30:42;3.27;;;2.97;;
10191;SDS011;17580;50.850;4.504;2023-08-30T00:33:10;2.70;;;2.60;;
10191;SDS011;17580;50.850;4.504;2023-08-30T00:35:39;3.23;;;2.60;;
10191;SDS011;17580;50.850;4.504;2023-08-30T00:38:06;3.23;;;2.70;;
10191;SDS011;17580;50.850;4.504;2023-08-30T00:40:37;3.37;;;3.07;;
10191;SDS011;17580;50.850;4.504;2023-08-30T00:43:05;2.80;;;2.60;;
10191;SDS011;17580;50.850;4.504;2023-08-30T00:45:33;2.60;;;2.50;;
10191;SDS011;17580;50.850;4.504;2023-08-30T00:48:01;2.70;;;2.50;;
10191;SDS011;17580;50.850;4.504;2023-08-30T00:50:29;4.13;;;2.60;;
10191;SDS011;17580;50.850;4.504;2023-08-30T00:52:57;2.83;;;2.63;;
10191;SDS011;17580;50.850;4.504;2023-08-30T00:55:27;2.47;;;2.10;;
10191;SDS011;17580;50.850;4.504;2023-08-30T00:57:54;2.80;;;2.60;;
10191;SDS011;17580;50.850;4.504;2023-08-30T01:00:21;2.20;;;2.10;;
10191;SDS011;17580;50.850;4.504;2023-08-30T01:02:48;3.10;;;2.50;;
10191;SDS011;17580;50.850;4.504;2023-08-30T01:05:15;2.43;;;2.33;;
10191;SDS011;17580;50.850;4.504;2023-08-30T01:07:44;3.80;;;2.20;;
10191;SDS011;17580;50.850;4.504;2023-08-30T01:10:12;2.43;;;2.23;;
10191;SDS011;17580;50.850;4.504;2023-08-30T01:12:39;2.27;;;2.17;;
10191;SDS011;17580;50.850;4.504;2023-08-30T01:15:10;3.27;;;2.50;;
10191;SDS011;17580;50.850;4.504;2023-08-30T01:17:42;2.50;;;2.40;;
10191;SDS011;17580;50.850;4.504;2023-08-30T01:20:10;2.87;;;2.57;;
10191;SDS011;17580;50.850;4.504;2023-08-30T01:22:43;3.70;;;2.77;;
10191;SDS011;17580;50.850;4.504;2023-08-30T01:25:20;2.10;;;2.00;;
10191;SDS011;17580;50.850;4.504;2023-08-30T01:27:58;2.57;;;2.37;;
10191;SDS011;17580;50.850;4.504;2023-08-30T01:30:29;2.33;;;2.23;;
10191;SDS011;17580;50.850;4.504;2023-08-30T01:32:58;2.30;;;2.20;;
10191;SDS011;17580;50.850;4.504;2023-08-30T01:35:27;3.17;;;2.93;;
10191;SDS011;17580;50.850;4.504;2023-08-30T01:37:58;3.17;;;2.70;;
10191;SDS011;17580;50.850;4.504;2023-08-30T01:40:26;2.73;;;2.47;;
10191;SDS011;17580;50.850;4.504;2023-08-30T01:42:54;2.60;;;2.40;;
10191;SDS011;17580;50.850;4.504;2023-08-30T01:45:24;2.83;;;2.63;;
10191;SDS011;17580;50.850;4.504;2023-08-30T01:47:53;4.10;;;2.90;;
10191;SDS011;17580;50.850;4.504;2023-08-30T01:50:21;2.93;;;2.57;;
10191;SDS011;17580;50.850;4.504;2023-08-30T01:52:49;3.40;;;3.20;;
10191;SDS011;17580;50.850;4.504;2023-08-30T01:55:17;3.00;;;2.80;;
10191;SDS011;17580;50.850;4.504;2023-08-30T01:57:46;3.10;;;2.90;;
10191;SDS011;17580;50.850;4.504;2023-08-30T02:00:14;3.20;;;2.90;;
10191;SDS011;17580;50.850;4.504;2023-08-30T02:02:42;3.00;;;2.80;;
10191;SDS011;17580;50.850;4.504;2023-08-30T02:05:09;5.10;;;3.17;;
10191;SDS011;17580;50.850;4.504;2023-08-30T02:07:39;3.40;;;3.10;;
10191;SDS011;17580;50.850;4.504;2023-08-30T02:10:15;4.40;;;3.83;;
10191;SDS011;17580;50.850;4.504;2023-08-30T02:12:48;4.23;;;3.30;;
10191;SDS011;17580;50.850;4.504;2023-08-30T02:15:16;3.67;;;3.37;;
10191;SDS011;17580;50.850;4.504;2023-08-30T02:17:46;3.50;;;3.20;;
10191;SDS011;17580;50.850;4.504;2023-08-30T02:20:15;3.70;;;3.40;;
10191;SDS011;17580;50.850;4.504;2023-08-30T02:22:42;3.90;;;3.10;;
10191;SDS011;17580;50.850;4.504;2023-08-30T02:25:09;3.87;;;3.57;;
10191;SDS011;17580;50.850;4.504;2023-08-30T02:27:36;3.47;;;3.20;;
10191;SDS011;17580;50.850;4.504;2023-08-30T02:30:04;3.67;;;3.40;;
10191;SDS011;17580;50.850;4.504;2023-08-30T02:32:32;3.60;;;3.30;;
10191;SDS011;17580;50.850;4.504;2023-08-30T02:35:01;3.47;;;3.27;;
10191;SDS011;17580;50.850;4.504;2023-08-30T02:37:29;3.67;;;3.37;;
10191;SDS011;17580;50.850;4.504;2023-08-30T02:39:56;6.37;;;3.63;;
10191;SDS011;17580;50.850;4.504;2023-08-30T02:42:23;4.90;;;3.60;;
10191;SDS011;17580;50.850;4.504;2023-08-30T02:44:51;4.00;;;3.60;;
10191;SDS011;17580;50.850;4.504;2023-08-30T02:47:18;3.47;;;3.17;;
10191;SDS011;17580;50.850;4.504;2023-08-30T02:49:45;3.40;;;3.17;;
10191;SDS011;17580;50.850;4.504;2023-08-30T02:52:13;4.33;;;3.53;;
10191;SDS011;17580;50.850;4.504;2023-08-30T02:54:40;4.10;;;3.47;;
10191;SDS011;17580;50.850;4.504;2023-08-30T02:57:08;3.90;;;2.83;;
10191;SDS011;17580;50.850;4.504;2023-08-30T02:59:35;5.23;;;3.87;;
10191;SDS011;17580;50.850;4.504;2023-08-30T03:02:02;3.67;;;3.30;;
10191;SDS011;17580;50.850;4.504;2023-08-30T03:04:29;3.77;;;3.47;;
10191;SDS011;17580;50.850;4.504;2023-08-30T03:06:56;4.13;;;3.83;;
10191;SDS011;17580;50.850;4.504;2023-08-30T03:09:25;4.00;;;3.60;;
10191;SDS011;17580;50.850;4.504;2023-08-30T03:11:52;3.70;;;3.40;;
10191;SDS011;17580;50.850;4.504;2023-08-30T03:14:19;4.33;;;3.93;;
10191;SDS011;17580;50.850;4.504;2023-08-30T03:16:46;4.80;;;4.40;;
10191;SDS011;17580;50.850;4.504;2023-08-30T03:19:13;4.97;;;4.47;;
10191;SDS011;17580;50.850;4.504;2023-08-30T03:21:42;5.03;;;4.50;;
10191;SDS011;17580;50.850;4.504;2023-08-30T03:24:09;5.47;;;4.40;;
10191;SDS011;17580;50.850;4.504;2023-08-30T03:26:37;4.27;;;3.87;;
10191;SDS011;17580;50.850;4.504;2023-08-30T03:29:06;4.57;;;4.17;;
10191;SDS011;17580;50.850;4.504;2023-08-30T03:31:33;6.03;;;4.80;;
10191;SDS011;17580;50.850;4.504;2023-08-30T03:34:00;5.37;;;4.40;;
10191;SDS011;17580;50.850;4.504;2023-08-30T03:36:28;3.83;;;3.53;;
10191;SDS011;17580;50.850;4.504;2023-08-30T03:38:55;5.10;;;4.50;;
10191;SDS011;17580;50.850;4.504;2023-08-30T03:41:22;4.77;;;4.37;;
10191;SDS011;17580;50.850;4.504;2023-08-30T03:43:51;5.07;;;4.63;;
10191;SDS011;17580;50.850;4.504;2023-08-30T03:46:18;5.97;;;4.70;;
10191;SDS011;17580;50.850;4.504;2023-08-30T03:48:45;5.57;;;5.07;;
10191;SDS011;17580;50.850;4.504;2023-08-30T03:51:12;4.70;;;4.30;;
10191;SDS011;17580;50.850;4.504;2023-08-30T03:53:39;4.70;;;4.30;;
10191;SDS011;17580;50.850;4.504;2023-08-30T03:56:06;8.10;;;4.93;;
10191;SDS011;17580;50.850;4.504;2023-08-30T03:58:33;5.30;;;4.77;;
10191;SDS011;17580;50.850;4.504;2023-08-30T04:01:01;4.83;;;4.43;;
10191;SDS011;17580;50.850;4.504;2023-08-30T04:03:28;6.47;;;5.10;;
10191;SDS011;17580;50.850;4.504;2023-08-30T04:05:55;4.63;;;4.20;;
10191;SDS011;17580;50.850;4.504;2023-08-30T04:08:22;5.77;;;5.17;;
10191;SDS011;17580;50.850;4.504;2023-08-30T04:10:51;4.87;;;4.33;;
10191;SDS011;17580;50.850;4.504;2023-08-30T04:13:19;5.00;;;4.40;;
10191;SDS011;17580;50.850;4.504;2023-08-30T04:15:47;5.07;;;4.57;;
10191;SDS011;17580;50.850;4.504;2023-08-30T04:18:15;4.47;;;3.27;;
10191;SDS011;17580;50.850;4.504;2023-08-30T04:20:45;4.03;;;3.30;;
10191;SDS011;17580;50.850;4.504;2023-08-30T04:23:13;4.13;;;3.80;;
10191;SDS011;17580;50.850;4.504;2023-08-30T04:25:40;6.27;;;4.30;;
10191;SDS011;17580;50.850;4.504;2023-08-30T04:28:07;4.63;;;4.23;;
10191;SDS011;17580;50.850;4.504;2023-08-30T04:30:35;4.40;;;4.10;;
10191;SDS011;17580;50.850;4.504;2023-08-30T04:33:03;6.50;;;4.83;;
10191;SDS011;17580;50.850;4.504;2023-08-30T04:35:32;6.23;;;4.93;;
10191;SDS011;17580;50.850;4.504;2023-08-30T04:38:00;6.73;;;4.63;;
10191;SDS011;17580;50.850;4.504;2023-08-30T04:40:28;5.23;;;4.67;;
10191;SDS011;17580;50.850;4.504;2023-08-30T04:42:55;5.10;;;4.60;;
10191;SDS011;17580;50.850;4.504;2023-08-30T04:45:22;5.77;;;4.40;;
10191;SDS011;17580;50.850;4.504;2023-08-30T04:47:49;6.80;;;5.07;;
10191;SDS011;17580;50.850;4.504;2023-08-30T04:50:18;4.47;;;3.57;;
10191;SDS011;17580;50.850;4.504;2023-08-30T04:52:46;5.63;;;5.13;;
10191;SDS011;17580;50.850;4.504;2023-08-30T04:55:13;6.40;;;4.67;;
10191;SDS011;17580;50.850;4.504;2023-08-30T04:57:40;7.47;;;5.03;;
10191;SDS011;17580;50.850;4.504;2023-08-30T05:00:10;7.50;;;4.90;;
10191;SDS011;17580;50.850;4.504;2023-08-30T05:02:37;9.63;;;5.60;;
10191;SDS011;17580;50.850;4.504;2023-08-30T05:05:06;6.72;;;5.30;;
10191;SDS011;17580;50.850;4.504;2023-08-30T05:07:33;5.83;;;4.53;;
10191;SDS011;17580;50.850;4.504;2023-08-30T05:10:02;5.73;;;4.57;;
10191;SDS011;17580;50.850;4.504;2023-08-30T05:12:29;6.23;;;4.67;;
10191;SDS011;17580;50.850;4.504;2023-08-30T05:14:56;5.13;;;3.87;;
10191;SDS011;17580;50.850;4.504;2023-08-30T05:17:23;7.03;;;4.13;;
10191;SDS011;17580;50.850;4.504;2023-08-30T05:19:50;5.83;;;3.93;;
10191;SDS011;17580;50.850;4.504;2023-08-30T05:22:20;4.43;;;4.03;;
10191;SDS011;17580;50.850;4.504;2023-08-30T05:24:48;4.23;;;3.83;;
10191;SDS011;17580;50.850;4.504;2023-08-30T05:27:16;4.10;;;3.80;;
10191;SDS011;17580;50.850;4.504;2023-08-30T05:29:43;4.47;;;3.70;;
10191;SDS011;17580;50.850;4.504;2023-08-30T05:32:10;5.97;;;4.33;;
10191;SDS011;17580;50.850;4.504;2023-08-30T05:34:37;5.43;;;4.00;;
10191;SDS011;17580;50.850;4.504;2023-08-30T05:37:04;4.00;;;3.70;;
10191;SDS011;17580;50.850;4.504;2023-08-30T05:39:31;4.57;;;3.80;;
10191;SDS011;17580;50.850;4.504;2023-08-30T05:41:58;3.83;;;3.53;;
10191;SDS011;17580;50.850;4.504;2023-08-30T05:44:27;4.17;;;3.77;;
10191;SDS011;17580;50.850;4.504;2023-08-30T05:46:54;5.30;;;4.63;;
10191;SDS011;17580;50.850;4.504;2023-08-30T05:49:21;4.70;;;4.20;;
10191;SDS011;17580;50.850;4.504;2023-08-30T05:51:48;4.40;;;3.97;;
10191;SDS011;17580;50.850;4.504;2023-08-30T05:54:15;4.40;;;4.00;;
10191;SDS011;17580;50.850;4.504;2023-08-30T05:56:42;5.90;;;4.73;;
10191;SDS011;17580;50.850;4.504;2023-08-30T05:59:09;3.70;;;3.40;;
10191;SDS011;17580;50.850;4.504;2023-08-30T06:01:37;3.90;;;3.60;;
10191;SDS011;17580;50.850;4.504;2023-08-30T06:04:04;4.37;;;3.80;;
10191;SDS011;17580;50.850;4.504;2023-08-30T06:06:32;3.93;;;3.63;;
10191;SDS011;17580;50.850;4.504;2023-08-30T06:08:58;4.20;;;3.90;;
10191;SDS011;17580;50.850;4.504;2023-08-30T06:11:25;3.30;;;3.10;;
10191;SDS011;17580;50.850;4.504;2023-08-30T06:13:52;3.63;;;3.33;;
10191;SDS011;17580;50.850;4.504;2023-08-30T06:16:20;3.40;;;3.10;;
10191;SDS011;17580;50.850;4.504;2023-08-30T06:18:48;3.90;;;3.60;;
10191;SDS011;17580;50.850;4.504;2023-08-30T06:21:15;3.70;;;3.40;;
10191;SDS011;17580;50.850;4.504;2023-08-30T06:23:42;3.37;;;3.17;;
10191;SDS011;17580;50.850;4.504;2023-08-30T06:26:09;3.33;;;3.13;;
10191;SDS011;17580;50.850;4.504;2023-08-30T06:28:36;3.87;;;3.03;;
10191;SDS011;17580;50.850;4.504;2023-08-30T06:31:03;3.60;;;3.40;;
10191;SDS011;17580;50.850;4.504;2023-08-30T06:33:30;4.03;;;3.57;;
10191;SDS011;17580;50.850;4.504;2023-08-30T06:35:59;4.30;;;3.60;;
10191;SDS011;17580;50.850;4.504;2023-08-30T06:38:26;4.30;;;2.90;;
10191;SDS011;17580;50.850;4.504;2023-08-30T06:40:53;3.43;;;3.23;;
10191;SDS011;17580;50.850;4.504;2023-08-30T06:43:20;3.40;;;3.10;;
10191;SDS011;17580;50.850;4.504;2023-08-30T06:45:47;3.50;;;3.30;;
10191;SDS011;17580;50.850;4.504;2023-08-30T06:48:14;4.07;;;3.70;;
10191;SDS011;17580;50.850;4.504;2023-08-30T06:50:40;3.47;;;3.17;;
10191;SDS011;17580;50.850;4.504;2023-08-30T06:53:09;2.90;;;2.70;;
10191;SDS011;17580;50.850;4.504;2023-08-30T06:55:36;4.87;;;3.50;;
10191;SDS011;17580;50.850;4.504;2023-08-30T06:58:03;4.20;;;3.90;;
10191;SDS011;17580;50.850;4.504;2023-08-30T07:00:31;5.93;;;3.67;;
10191;SDS011;17580;50.850;4.504;2023-08-30T07:02:58;4.27;;;3.53;;
10191;SDS011;17580;50.850;4.504;2023-08-30T07:05:25;3.70;;;3.50;;
10191;SDS011;17580;50.850;4.504;2023-08-30T07:07:52;4.20;;;3.80;;
10191;SDS011;17580;50.850;4.504;2023-08-30T07:10:21;3.30;;;3.10;;
10191;SDS011;17580;50.850;4.504;2023-08-30T07:12:48;3.07;;;2.87;;
10191;SDS011;17580;50.850;4.504;2023-08-30T07:15:15;3.40;;;3.17;;
10191;SDS011;17580;50.850;4.504;2023-08-30T07:17:43;3.70;;;3.40;;
10191;SDS011;17580;50.850;4.504;2023-08-30T07:20:10;4.47;;;3.50;;
10191;SDS011;17580;50.850;4.504;2023-08-30T07:22:37;3.00;;;2.90;;
10191;SDS011;17580;50.850;4.504;2023-08-30T07:25:05;3.60;;;2.87;;
10191;SDS011;17580;50.850;4.504;2023-08-30T07:27:35;3.27;;;3.07;;
10191;SDS011;17580;50.850;4.504;2023-08-30T07:30:02;5.20;;;3.00;;
10191;SDS011;17580;50.850;4.504;2023-08-30T07:32:30;2.93;;;2.60;;
10191;SDS011;17580;50.850;4.504;2023-08-30T07:34:57;3.47;;;3.17;;
10191;SDS011;17580;50.850;4.504;2023-08-30T07:37:25;2.80;;;2.60;;
10191;SDS011;17580;50.850;4.504;2023-08-30T07:39:52;2.70;;;2.50;;
10191;SDS011;17580;50.850;4.504;2023-08-30T07:42:19;3.13;;;2.33;;
10191;SDS011;17580;50.850;4.504;2023-08-30T07:44:48;2.50;;;2.40;;
10191;SDS011;17580;50.850;4.504;2023-08-30T07:47:15;3.27;;;3.00;;
10191;SDS011;17580;50.850;4.504;2023-08-30T07:49:42;3.27;;;2.53;;
10191;SDS011;17580;50.850;4.504;2023-08-30T07:52:09;2.50;;;2.40;;
10191;SDS011;17580;50.850;4.504;2023-08-30T07:54:38;2.33;;;2.23;;
10191;SDS011;17580;50.850;4.504;2023-08-30T07:57:06;2.30;;;2.20;;
10191;SDS011;17580;50.850;4.504;2023-08-30T07:59:33;2.20;;;2.10;;
10191;SDS011;17580;50.850;4.504;2023-08-30T08:02:03;2.77;;;2.57;;
10191;SDS011;17580;50.850;4.504;2023-08-30T08:04:31;2.40;;;2.10;;
10191;SDS011;17580;50.850;4.504;2023-08-30T08:06:58;2.77;;;2.67;;
10191;SDS011;17580;50.850;4.504;2023-08-30T08:09:25;2.80;;;2.60;;
10191;SDS011;17580;50.850;4.504;2023-08-30T08:11:53;2.47;;;2.27;;
10191;SDS011;17580;50.850;4.504;2023-08-30T08:14:21;1.90;;;1.90;;
10191;SDS011;17580;50.850;4.504;2023-08-30T08:16:48;2.23;;;2.10;;
10191;SDS011;17580;50.850;4.504;2023-08-30T08:19:16;2.43;;;2.23;;
10191;SDS011;17580;50.850;4.504;2023-08-30T08:21:45;1.97;;;1.87;;
10191;SDS011;17580;50.850;4.504;2023-08-30T08:24:12;1.70;;;1.70;;
10191;SDS011;17580;50.850;4.504;2023-08-30T08:26:39;2.30;;;2.20;;
10191;SDS011;17580;50.850;4.504;2023-08-30T08:29:06;3.03;;;2.10;;
10191;SDS011;17580;50.850;4.504;2023-08-30T08:31:33;2.57;;;1.90;;
10191;SDS011;17580;50.850;4.504;2023-08-30T08:34:07;2.30;;;2.20;;
10191;SDS011;17580;50.850;4.504;2023-08-30T08:36:38;2.17;;;2.07;;
10191;SDS011;17580;50.850;4.504;2023-08-30T08:39:05;2.70;;;2.30;;
10191;SDS011;17580;50.850;4.504;2023-08-30T08:41:35;2.13;;;2.03;;
10191;SDS011;17580;50.850;4.504;2023-08-30T08:44:05;2.37;;;2.20;;
10191;SDS011;17580;50.850;4.504;2023-08-30T08:46:34;2.03;;;1.93;;
10191;SDS011;17580;50.850;4.504;2023-08-30T08:49:05;2.23;;;2.13;;
10191;SDS011;17580;50.850;4.504;2023-08-30T08:51:38;2.50;;;2.30;;
10191;SDS011;17580;50.850;4.504;2023-08-30T08:54:05;2.30;;;2.20;;
10191;SDS011;17580;50.850;4.504;2023-08-30T08:56:34;3.00;;;2.70;;
10191;SDS011;17580;50.850;4.504;2023-08-30T08:59:02;3.07;;;2.73;;
10191;SDS011;17580;50.850;4.504;2023-08-30T09:01:30;5.07;;;2.80;;
10191;SDS011;17580;50.850;4.504;2023-08-30T09:04:01;3.57;;;3.37;;
10191;SDS011;17580;50.850;4.504;2023-08-30T09:06:31;3.00;;;2.80;;
10191;SDS011;17580;50.850;4.504;2023-08-30T09:08:59;3.37;;;3.17;;
10191;SDS011;17580;50.850;4.504;2023-08-30T09:11:27;2.77;;;2.57;;
10191;SDS011;17580;50.850;4.504;2023-08-30T09:13:54;3.07;;;2.87;;
10191;SDS011;17580;50.850;4.504;2023-08-30T09:16:21;3.70;;;3.20;;
10191;SDS011;17580;50.850;4.504;2023-08-30T09:18:56;3.80;;;3.50;;
10191;SDS011;17580;50.850;4.504;2023-08-30T09:21:24;3.20;;;3.00;;
10191;SDS011;17580;50.850;4.504;2023-08-30T09:24:00;3.30;;;3.10;;
10191;SDS011;17580;50.850;4.504;2023-08-30T09:26:28;3.90;;;3.60;;
10191;SDS011;17580;50.850;4.504;2023-08-30T09:29:00;3.93;;;3.73;;
10191;SDS011;17580;50.850;4.504;2023-08-30T09:31:32;3.40;;;3.20;;
10191;SDS011;17580;50.850;4.504;2023-08-30T09:33:59;3.47;;;3.27;;
10191;SDS011;17580;50.850;4.504;2023-08-30T09:36:32;3.97;;;3.67;;
10191;SDS011;17580;50.850;4.504;2023-08-30T09:39:04;4.70;;;4.00;;
10191;SDS011;17580;50.850;4.504;2023-08-30T09:41:31;4.43;;;4.13;;
10191;SDS011;17580;50.850;4.504;2023-08-30T09:43:59;4.90;;;4.60;;
10191;SDS011;17580;50.850;4.504;2023-08-30T09:46:26;4.67;;;4.37;;
10191;SDS011;17580;50.850;4.504;2023-08-30T09:48:54;4.53;;;4.23;;
10191;SDS011;17580;50.850;4.504;2023-08-30T09:51:22;4.63;;;4.23;;
10191;SDS011;17580;50.850;4.504;2023-08-30T09:53:53;4.43;;;4.10;;
10191;SDS011;17580;50.850;4.504;2023-08-30T09:56:26;5.53;;;4.87;;
10191;SDS011;17580;50.850;4.504;2023-08-30T09:58:54;4.10;;;3.77;;
10191;SDS011;17580;50.850;4.504;2023-08-30T10:01:21;3.97;;;3.77;;
10191;SDS011;17580;50.850;4.504;2023-08-30T10:03:49;4.77;;;4.40;;
10191;SDS011;17580;50.850;4.504;2023-08-30T10:06:17;4.33;;;4.03;;
10191;SDS011;17580;50.850;4.504;2023-08-30T10:08:44;5.17;;;4.17;;
10191;SDS011;17580;50.850;4.504;2023-08-30T10:11:15;4.77;;;4.40;;
10191;SDS011;17580;50.850;4.504;2023-08-30T10:13:45;4.97;;;4.50;;
10191;SDS011;17580;50.850;4.504;2023-08-30T10:16:15;5.23;;;4.83;;
10191;SDS011;17580;50.850;4.504;2023-08-30T10:18:46;5.77;;;5.00;;
10191;SDS011;17580;50.850;4.504;2023-08-30T10:21:16;4.63;;;4.33;;
10191;SDS011;17580;50.850;4.504;2023-08-30T10:23:45;5.10;;;4.57;;
10191;SDS011;17580;50.850;4.504;2023-08-30T10:26:15;4.33;;;4.03;;
10191;SDS011;17580;50.850;4.504;2023-08-30T10:28:44;4.70;;;4.40;;
10191;SDS011;17580;50.850;4.504;2023-08-30T10:31:13;4.93;;;4.53;;
10191;SDS011;17580;50.850;4.504;2023-08-30T10:33:46;5.73;;;5.10;;
10191;SDS011;17580;50.850;4.504;2023-08-30T10:36:20;5.10;;;4.60;;
10191;SDS011;17580;50.850;4.504;2023-08-30T10:38:48;4.80;;;4.40;;
10191;SDS011;17580;50.850;4.504;2023-08-30T10:41:19;4.13;;;3.83;;
10191;SDS011;17580;50.850;4.504;2023-08-30T10:43:50;4.90;;;4.50;;
10191;SDS011;17580;50.850;4.504;2023-08-30T10:46:28;4.80;;;4.50;;
10191;SDS011;17580;50.850;4.504;2023-08-30T10:48:56;5.07;;;4.67;;
10191;SDS011;17580;50.850;4.504;2023-08-30T10:51:36;4.60;;;4.20;;
10191;SDS011;17580;50.850;4.504;2023-08-30T10:54:10;5.20;;;4.80;;
10191;SDS011;17580;50.850;4.504;2023-08-30T10:56:48;5.03;;;4.67;;
10191;SDS011;17580;50.850;4.504;2023-08-30T10:59:22;4.53;;;4.23;;
10191;SDS011;17580;50.850;4.504;2023-08-30T11:01:50;6.30;;;4.73;;
10191;SDS011;17580;50.850;4.504;2023-08-30T11:04:18;4.97;;;4.47;;
10191;SDS011;17580;50.850;4.504;2023-08-30T11:06:48;4.93;;;4.43;;
10191;SDS011;17580;50.850;4.504;2023-08-30T11:09:15;4.50;;;4.20;;
10191;SDS011;17580;50.850;4.504;2023-08-30T11:11:44;4.53;;;4.27;;
10191;SDS011;17580;50.850;4.504;2023-08-30T11:14:12;5.00;;;4.60;;
10191;SDS011;17580;50.850;4.504;2023-08-30T11:16:41;4.50;;;4.20;;
10191;SDS011;17580;50.850;4.504;2023-08-30T11:19:09;4.70;;;4.40;;
10191;SDS011;17580;50.850;4.504;2023-08-30T11:21:37;4.57;;;4.13;;
10191;SDS011;17580;50.850;4.504;2023-08-30T11:24:05;5.03;;;4.50;;
10191;SDS011;17580;50.850;4.504;2023-08-30T11:26:33;4.83;;;4.40;;
10191;SDS011;17580;50.850;4.504;2023-08-30T11:29:04;4.50;;;4.20;;
10191;SDS011;17580;50.850;4.504;2023-08-30T11:31:31;6.67;;;4.10;;
10191;SDS011;17580;50.850;4.504;2023-08-30T11:34:00;5.10;;;4.63;;
10191;SDS011;17580;50.850;4.504;2023-08-30T11:36:28;6.90;;;4.57;;
10191;SDS011;17580;50.850;4.504;2023-08-30T11:38:57;4.60;;;4.20;;
10191;SDS011;17580;50.850;4.504;2023-08-30T11:41:24;4.47;;;4.17;;
10191;SDS011;17580;50.850;4.504;2023-08-30T11:43:52;4.60;;;4.17;;
10191;SDS011;17580;50.850;4.504;2023-08-30T11:46:20;4.50;;;4.10;;
10191;SDS011;17580;50.850;4.504;2023-08-30T11:48:48;6.03;;;4.40;;
10191;SDS011;17580;50.850;4.504;2023-08-30T11:51:18;4.57;;;4.07;;
10191;SDS011;17580;50.850;4.504;2023-08-30T11:53:46;4.63;;;3.50;;
10191;SDS011;17580;50.850;4.504;2023-08-30T11:56:14;5.10;;;4.03;;
10191;SDS011;17580;50.850;4.504;2023-08-30T11:58:42;6.33;;;3.60;;
10191;SDS011;17580;50.850;4.504;2023-08-30T12:01:09;3.27;;;2.87;;
10191;SDS011;17580;50.850;4.504;2023-08-30T12:03:37;4.10;;;2.70;;
10191;SDS011;17580;50.850;4.504;2023-08-30T12:06:09;3.83;;;2.40;;
10191;SDS011;17580;50.850;4.504;2023-08-30T12:08:38;2.60;;;2.00;;
10191;SDS011;17580;50.850;4.504;2023-08-30T12:11:05;4.63;;;2.00;;
10191;SDS011;17580;50.850;4.504;2023-08-30T12:13:32;5.03;;;2.60;;
10191;SDS011;17580;50.850;4.504;2023-08-30T12:16:00;6.93;;;2.73;;
10191;SDS011;17580;50.850;4.504;2023-08-30T12:18:28;4.43;;;2.10;;
10191;SDS011;17580;50.850;4.504;2023-08-30T12:20:58;3.83;;;2.17;;
10191;SDS011;17580;50.850;4.504;2023-08-30T12:23:27;3.60;;;2.30;;
10191;SDS011;17580;50.850;4.504;2023-08-30T12:26:03;4.53;;;2.20;;
10191;SDS011;17580;50.850;4.504;2023-08-30T12:28:31;3.80;;;2.10;;
10191;SDS011;17580;50.850;4.504;2023-08-30T12:31:00;6.73;;;2.50;;
10191;SDS011;17580;50.850;4.504;2023-08-30T12:33:29;6.93;;;2.90;;
10191;SDS011;17580;50.850;4.504;2023-08-30T12:35:56;5.53;;;2.40;;
10191;SDS011;17580;50.850;4.504;2023-08-30T12:38:24;2.63;;;2.20;;
10191;SDS011;17580;50.850;4.504;2023-08-30T12:40:52;4.90;;;2.73;;
10191;SDS011;17580;50.850;4.504;2023-08-30T12:43:21;3.67;;;2.50;;
10191;SDS011;17580;50.850;4.504;2023-08-30T12:45:49;8.30;;;2.43;;
10191;SDS011;17580;50.850;4.504;2023-08-30T12:48:17;4.83;;;2.33;;
10191;SDS011;17580;50.850;4.504;2023-08-30T12:50:45;2.73;;;2.27;;
10191;SDS011;17580;50.850;4.504;2023-08-30T12:53:13;3.33;;;2.10;;
10191;SDS011;17580;50.850;4.504;2023-08-30T12:55:42;5.83;;;2.77;;
10191;SDS011;17580;50.850;4.504;2023-08-30T12:58:09;3.27;;;2.13;;
10191;SDS011;17580;50.850;4.504;2023-08-30T13:00:38;4.10;;;2.13;;
10191;SDS011;17580;50.850;4.504;2023-08-30T13:03:05;5.53;;;2.23;;
10191;SDS011;17580;50.850;4.504;2023-08-30T13:05:32;6.00;;;2.23;;
10191;SDS011;17580;50.850;4.504;2023-08-30T13:08:01;4.50;;;2.27;;
10191;SDS011;17580;50.850;4.504;2023-08-30T13:10:28;4.67;;;2.50;;
10191;SDS011;17580;50.850;4.504;2023-08-30T13:12:55;3.00;;;1.93;;
10191;SDS011;17580;50.850;4.504;2023-08-30T13:15:22;5.87;;;2.70;;
10191;SDS011;17580;50.850;4.504;2023-08-30T13:17:51;6.13;;;2.17;;
10191;SDS011;17580;50.850;4.504;2023-08-30T13:20:18;4.63;;;2.20;;
10191;SDS011;17580;50.850;4.504;2023-08-30T13:22:45;4.40;;;2.30;;
10191;SDS011;17580;50.850;4.504;2023-08-30T13:25:13;3.63;;;2.07;;
10191;SDS011;17580;50.850;4.504;2023-08-30T13:27:40;4.23;;;2.00;;
10191;SDS011;17580;50.850;4.504;2023-08-30T13:30:07;3.20;;;1.77;;
10191;SDS011;17580;50.850;4.504;2023-08-30T13:32:37;4.63;;;2.23;;
10191;SDS011;17580;50.850;4.504;2023-08-30T13:35:06;2.37;;;1.60;;
10191;SDS011;17580;50.850;4.504;2023-08-30T13:37:33;2.50;;;1.40;;
10191;SDS011;17580;50.850;4.504;2023-08-30T13:40:00;4.27;;;2.37;;
10191;SDS011;17580;50.850;4.504;2023-08-30T13:42:31;4.03;;;1.83;;
10191;SDS011;17580;50.850;4.504;2023-08-30T13:44:58;4.60;;;2.07;;
10191;SDS011;17580;50.850;4.504;2023-08-30T13:47:25;2.73;;;1.70;;
10191;SDS011;17580;50.850;4.504;2023-08-30T13:49:52;2.40;;;1.57;;
10191;SDS011;17580;50.850;4.504;2023-08-30T13:52:20;1.80;;;1.50;;
10191;SDS011;17580;50.850;4.504;2023-08-30T13:54:47;3.37;;;1.83;;
10191;SDS011;17580;50.850;4.504;2023-08-30T13:57:15;3.03;;;1.47;;
10191;SDS011;17580;50.850;4.504;2023-08-30T13:59:42;3.27;;;1.57;;
10191;SDS011;17580;50.850;4.504;2023-08-30T14:02:09;2.53;;;1.73;;
10191;SDS011;17580;50.850;4.504;2023-08-30T14:04:36;3.10;;;1.77;;
10191;SDS011;17580;50.850;4.504;2023-08-30T14:07:03;7.07;;;1.33;;
10191;SDS011;17580;50.850;4.504;2023-08-30T14:09:32;3.87;;;1.87;;
10191;SDS011;17580;50.850;4.504;2023-08-30T14:11:59;2.90;;;1.70;;
10191;SDS011;17580;50.850;4.504;2023-08-30T14:14:29;2.00;;;1.70;;
10191;SDS011;17580;50.850;4.504;2023-08-30T14:16:56;2.10;;;1.57;;
10191;SDS011;17580;50.850;4.504;2023-08-30T14:19:23;3.73;;;1.90;;
10191;SDS011;17580;50.850;4.504;2023-08-30T14:21:50;2.17;;;1.60;;
10191;SDS011;17580;50.850;4.504;2023-08-30T14:24:19;1.50;;;1.40;;
10191;SDS011;17580;50.850;4.504;2023-08-30T14:26:48;4.97;;;1.70;;
10191;SDS011;17580;50.850;4.504;2023-08-30T14:29:15;2.80;;;1.87;;
10191;SDS011;17580;50.850;4.504;2023-08-30T14:31:42;3.13;;;1.43;;
10191;SDS011;17580;50.850;4.504;2023-08-30T14:34:09;2.37;;;1.40;;
10191;SDS011;17580;50.850;4.504;2023-08-30T14:36:36;4.53;;;2.17;;
10191;SDS011;17580;50.850;4.504;2023-08-30T14:39:03;4.90;;;1.90;;
10191;SDS011;17580;50.850;4.504;2023-08-30T14:41:30;1.80;;;1.30;;
10191;SDS011;17580;50.850;4.504;2023-08-30T14:43:59;2.20;;;1.50;;
10191;SDS011;17580;50.850;4.504;2023-08-30T14:46:28;3.97;;;1.63;;
10191;SDS011;17580;50.850;4.504;2023-08-30T14:48:55;1.97;;;1.33;;
10191;SDS011;17580;50.850;4.504;2023-08-30T14:51:22;1.60;;;1.47;;
10191;SDS011;17580;50.850;4.504;2023-08-30T14:53:49;1.50;;;1.37;;